sensor_id;sensor_type;location;lat;lon;timestamp;P1;durP1;ratioP1;P2;durP2;ratioP2
20379;SDS011;10349;48.666;8.948;2022-12-20T00:01:29;25.00;;;11.40;;
20379;SDS011;10349;48.666;8.948;2022-12-20T00:03:58;11.60;;;9.03;;
20379;SDS011;10349;48.666;8.948;2022-12-20T00:06:29;16.53;;;9.50;;
20379;SDS011;10349;48.666;8.948;2022-12-20T00:08:56;13.37;;;10.33;;
20379;SDS011;10349;48.666;8.948;2022-12-20T00:11:24;17.17;;;10.80;;
20379;SDS011;10349;48.666;8.948;2022-12-20T00:13:51;17.90;;;10.60;;
20379;SDS011;10349;48.666;8.948;2022-12-20T00:16:18;16.63;;;10.80;;
20379;SDS011;10349;48.666;8.948;2022-12-20T00:18:46;13.63;;;8.33;;
20379;SDS011;10349;48.666;8.948;2022-12-20T00:21:14;18.30;;;9.90;;
20379;SDS011;10349;48.666;8.948;2022-12-20T00:23:40;17.27;;;11.40;;
20379;SDS011;10349;48.666;8.948;2022-12-20T00:26:07;14.07;;;9.87;;
20379;SDS011;10349;48.666;8.948;2022-12-20T00:28:43;12.00;;;9.33;;
20379;SDS011;10349;48.666;8.948;2022-12-20T00:31:10;12.57;;;9.30;;
20379;SDS011;10349;48.666;8.948;2022-12-20T00:33:38;13.17;;;8.90;;
20379;SDS011;10349;48.666;8.948;2022-12-20T00:36:06;20.03;;;9.67;;
20379;SDS011;10349;48.666;8.948;2022-12-20T00:38:33;17.13;;;8.33;;
20379;SDS011;10349;48.666;8.948;2022-12-20T00:41:00;10.27;;;8.30;;
20379;SDS011;10349;48.666;8.948;2022-12-20T00:43:29;15.60;;;9.90;;
20379;SDS011;10349;48.666;8.948;2022-12-20T00:45:56;14.43;;;9.00;;
20379;SDS011;10349;48.666;8.948;2022-12-20T00:48:21;14.37;;;9.63;;
20379;SDS011;10349;48.666;8.948;2022-12-20T00:50:47;13.70;;;8.37;;
20379;SDS011;10349;48.666;8.948;2022-12-20T00:53:13;12.10;;;8.97;;
20379;SDS011;10349;48.666;8.948;2022-12-20T00:55:40;18.50;;;10.03;;
20379;SDS011;10349;48.666;8.948;2022-12-20T00:58:06;16.07;;;9.00;;
20379;SDS011;10349;48.666;8.948;2022-12-20T01:00:32;12.00;;;9.30;;
20379;SDS011;10349;48.666;8.948;2022-12-20T01:02:58;11.60;;;7.80;;
20379;SDS011;10349;48.666;8.948;2022-12-20T01:05:23;13.00;;;9.90;;
20379;SDS011;10349;48.666;8.948;2022-12-20T01:07:49;11.30;;;8.57;;
20379;SDS011;10349;48.666;8.948;2022-12-20T01:10:15;13.10;;;9.63;;
20379;SDS011;10349;48.666;8.948;2022-12-20T01:12:42;13.73;;;8.93;;
20379;SDS011;10349;48.666;8.948;2022-12-20T01:15:08;12.57;;;7.60;;
20379;SDS011;10349;48.666;8.948;2022-12-20T01:17:35;14.33;;;8.37;;
20379;SDS011;10349;48.666;8.948;2022-12-20T01:20:01;8.87;;;8.00;;
20379;SDS011;10349;48.666;8.948;2022-12-20T01:22:27;12.27;;;8.47;;
20379;SDS011;10349;48.666;8.948;2022-12-20T01:24:53;12.80;;;7.93;;
20379;SDS011;10349;48.666;8.948;2022-12-20T01:27:19;14.10;;;7.87;;
20379;SDS011;10349;48.666;8.948;2022-12-20T01:29:44;12.77;;;8.37;;
20379;SDS011;10349;48.666;8.948;2022-12-20T01:32:10;12.63;;;8.50;;
20379;SDS011;10349;48.666;8.948;2022-12-20T01:34:35;13.07;;;9.27;;
20379;SDS011;10349;48.666;8.948;2022-12-20T01:37:01;14.50;;;9.60;;
20379;SDS011;10349;48.666;8.948;2022-12-20T01:39:27;12.00;;;9.53;;
20379;SDS011;10349;48.666;8.948;2022-12-20T01:41:52;17.83;;;8.60;;
20379;SDS011;10349;48.666;8.948;2022-12-20T01:46:44;11.03;;;7.90;;
20379;SDS011;10349;48.666;8.948;2022-12-20T01:49:17;11.70;;;8.50;;
20379;SDS011;10349;48.666;8.948;2022-12-20T01:54:38;13.03;;;8.77;;
20379;SDS011;10349;48.666;8.948;2022-12-20T01:57:13;11.90;;;8.43;;
20379;SDS011;10349;48.666;8.948;2022-12-20T01:59:45;11.60;;;7.87;;
20379;SDS011;10349;48.666;8.948;2022-12-20T02:02:14;11.47;;;9.00;;
20379;SDS011;10349;48.666;8.948;2022-12-20T02:04:40;10.60;;;7.33;;
20379;SDS011;10349;48.666;8.948;2022-12-20T02:07:05;18.63;;;9.40;;
20379;SDS011;10349;48.666;8.948;2022-12-20T02:09:33;14.53;;;9.97;;
20379;SDS011;10349;48.666;8.948;2022-12-20T02:12:08;15.77;;;9.17;;
20379;SDS011;10349;48.666;8.948;2022-12-20T02:31:42;15.93;;;10.17;;
20379;SDS011;10349;48.666;8.948;2022-12-20T02:34:16;14.50;;;9.40;;
20379;SDS011;10349;48.666;8.948;2022-12-20T02:36:46;11.27;;;10.07;;
20379;SDS011;10349;48.666;8.948;2022-12-20T02:39:12;10.13;;;8.70;;
20379;SDS011;10349;48.666;8.948;2022-12-20T02:41:42;13.20;;;9.10;;
20379;SDS011;10349;48.666;8.948;2022-12-20T02:44:14;12.63;;;8.83;;
20379;SDS011;10349;48.666;8.948;2022-12-20T02:47:02;17.60;;;10.23;;
20379;SDS011;10349;48.666;8.948;2022-12-20T02:49:33;17.97;;;9.00;;
20379;SDS011;10349;48.666;8.948;2022-12-20T02:52:03;16.00;;;9.63;;
20379;SDS011;10349;48.666;8.948;2022-12-20T02:54:30;14.87;;;9.70;;
20379;SDS011;10349;48.666;8.948;2022-12-20T02:57:02;12.90;;;8.13;;
20379;SDS011;10349;48.666;8.948;2022-12-20T03:00:17;15.20;;;9.60;;
20379;SDS011;10349;48.666;8.948;2022-12-20T03:02:33;9.27;;;7.20;;
20379;SDS011;10349;48.666;8.948;2022-12-20T03:05:21;15.17;;;10.00;;
20379;SDS011;10349;48.666;8.948;2022-12-20T03:07:48;14.27;;;9.07;;
20379;SDS011;10349;48.666;8.948;2022-12-20T03:10:17;12.80;;;10.20;;
20379;SDS011;10349;48.666;8.948;2022-12-20T03:12:43;16.10;;;9.40;;
20379;SDS011;10349;48.666;8.948;2022-12-20T03:15:09;13.13;;;9.60;;
20379;SDS011;10349;48.666;8.948;2022-12-20T03:17:35;25.90;;;10.10;;
20379;SDS011;10349;48.666;8.948;2022-12-20T03:20:02;17.27;;;10.30;;
20379;SDS011;10349;48.666;8.948;2022-12-20T03:22:30;11.10;;;9.10;;
20379;SDS011;10349;48.666;8.948;2022-12-20T03:24:57;13.10;;;8.00;;
20379;SDS011;10349;48.666;8.948;2022-12-20T03:27:23;14.20;;;8.93;;
20379;SDS011;10349;48.666;8.948;2022-12-20T03:29:51;11.37;;;8.63;;
20379;SDS011;10349;48.666;8.948;2022-12-20T03:32:17;14.70;;;12.17;;
20379;SDS011;10349;48.666;8.948;2022-12-20T03:34:43;17.37;;;10.30;;
20379;SDS011;10349;48.666;8.948;2022-12-20T03:37:10;21.20;;;10.60;;
20379;SDS011;10349;48.666;8.948;2022-12-20T03:39:35;14.43;;;9.80;;
20379;SDS011;10349;48.666;8.948;2022-12-20T03:42:01;14.97;;;10.27;;
20379;SDS011;10349;48.666;8.948;2022-12-20T03:44:27;17.67;;;10.17;;
20379;SDS011;10349;48.666;8.948;2022-12-20T03:46:53;13.27;;;9.67;;
20379;SDS011;10349;48.666;8.948;2022-12-20T03:49:19;15.73;;;9.23;;
20379;SDS011;10349;48.666;8.948;2022-12-20T03:51:48;14.40;;;10.33;;
20379;SDS011;10349;48.666;8.948;2022-12-20T03:54:14;14.13;;;10.30;;
20379;SDS011;10349;48.666;8.948;2022-12-20T03:57:02;14.23;;;9.73;;
20379;SDS011;10349;48.666;8.948;2022-12-20T03:59:29;13.93;;;9.97;;
20379;SDS011;10349;48.666;8.948;2022-12-20T04:01:54;13.93;;;9.50;;
20379;SDS011;10349;48.666;8.948;2022-12-20T04:04:20;13.67;;;10.10;;
20379;SDS011;10349;48.666;8.948;2022-12-20T04:06:46;14.43;;;8.50;;
20379;SDS011;10349;48.666;8.948;2022-12-20T04:09:12;13.67;;;9.37;;
20379;SDS011;10349;48.666;8.948;2022-12-20T04:11:45;11.70;;;7.90;;
20379;SDS011;10349;48.666;8.948;2022-12-20T04:14:13;14.60;;;8.43;;
20379;SDS011;10349;48.666;8.948;2022-12-20T04:16:39;9.63;;;8.63;;
20379;SDS011;10349;48.666;8.948;2022-12-20T04:19:07;9.30;;;8.27;;
20379;SDS011;10349;48.666;8.948;2022-12-20T04:21:37;14.30;;;8.53;;
20379;SDS011;10349;48.666;8.948;2022-12-20T04:24:04;11.50;;;7.57;;
20379;SDS011;10349;48.666;8.948;2022-12-20T04:26:56;18.90;;;10.03;;
20379;SDS011;10349;48.666;8.948;2022-12-20T04:29:22;19.67;;;9.83;;
20379;SDS011;10349;48.666;8.948;2022-12-20T04:31:48;12.40;;;8.60;;
20379;SDS011;10349;48.666;8.948;2022-12-20T04:34:14;11.07;;;8.07;;
20379;SDS011;10349;48.666;8.948;2022-12-20T04:36:40;11.30;;;8.77;;
20379;SDS011;10349;48.666;8.948;2022-12-20T04:39:12;16.97;;;10.17;;
20379;SDS011;10349;48.666;8.948;2022-12-20T04:41:49;16.07;;;10.07;;
20379;SDS011;10349;48.666;8.948;2022-12-20T04:44:15;14.80;;;10.20;;
20379;SDS011;10349;48.666;8.948;2022-12-20T04:46:41;11.57;;;8.40;;
20379;SDS011;10349;48.666;8.948;2022-12-20T04:49:11;10.57;;;7.67;;
20379;SDS011;10349;48.666;8.948;2022-12-20T04:51:40;10.60;;;7.53;;
20379;SDS011;10349;48.666;8.948;2022-12-20T04:54:05;11.97;;;7.60;;
20379;SDS011;10349;48.666;8.948;2022-12-20T04:56:40;9.30;;;7.60;;
20379;SDS011;10349;48.666;8.948;2022-12-20T04:59:12;8.63;;;7.73;;
20379;SDS011;10349;48.666;8.948;2022-12-20T05:01:41;14.60;;;8.80;;
20379;SDS011;10349;48.666;8.948;2022-12-20T05:04:07;10.90;;;8.67;;
20379;SDS011;10349;48.666;8.948;2022-12-20T05:06:35;14.00;;;9.40;;
20379;SDS011;10349;48.666;8.948;2022-12-20T05:09:01;18.50;;;9.90;;
20379;SDS011;10349;48.666;8.948;2022-12-20T05:11:27;10.83;;;7.80;;
20379;SDS011;10349;48.666;8.948;2022-12-20T05:13:52;9.30;;;8.00;;
20379;SDS011;10349;48.666;8.948;2022-12-20T05:16:19;12.70;;;9.53;;
20379;SDS011;10349;48.666;8.948;2022-12-20T05:18:45;10.00;;;8.63;;
20379;SDS011;10349;48.666;8.948;2022-12-20T05:21:11;9.90;;;7.60;;
20379;SDS011;10349;48.666;8.948;2022-12-20T05:23:55;13.20;;;8.20;;
20379;SDS011;10349;48.666;8.948;2022-12-20T05:26:53;13.57;;;8.80;;
20379;SDS011;10349;48.666;8.948;2022-12-20T05:29:19;8.23;;;7.37;;
20379;SDS011;10349;48.666;8.948;2022-12-20T05:31:45;15.63;;;7.73;;
20379;SDS011;10349;48.666;8.948;2022-12-20T05:34:11;14.50;;;8.37;;
20379;SDS011;10349;48.666;8.948;2022-12-20T05:36:39;9.00;;;7.53;;
20379;SDS011;10349;48.666;8.948;2022-12-20T05:39:06;10.67;;;8.00;;
20379;SDS011;10349;48.666;8.948;2022-12-20T05:41:36;17.07;;;8.47;;
20379;SDS011;10349;48.666;8.948;2022-12-20T05:44:02;9.53;;;6.63;;
20379;SDS011;10349;48.666;8.948;2022-12-20T05:46:31;9.03;;;7.17;;
20379;SDS011;10349;48.666;8.948;2022-12-20T05:49:01;8.73;;;7.40;;
20379;SDS011;10349;48.666;8.948;2022-12-20T05:51:27;10.00;;;8.00;;
20379;SDS011;10349;48.666;8.948;2022-12-20T05:54:00;10.80;;;6.80;;
20379;SDS011;10349;48.666;8.948;2022-12-20T05:56:51;12.50;;;7.63;;
20379;SDS011;10349;48.666;8.948;2022-12-20T05:59:21;12.80;;;8.20;;
20379;SDS011;10349;48.666;8.948;2022-12-20T06:01:47;12.57;;;7.90;;
20379;SDS011;10349;48.666;8.948;2022-12-20T06:04:13;12.20;;;7.33;;
20379;SDS011;10349;48.666;8.948;2022-12-20T06:06:39;10.63;;;7.43;;
20379;SDS011;10349;48.666;8.948;2022-12-20T06:09:07;14.93;;;7.37;;
20379;SDS011;10349;48.666;8.948;2022-12-20T06:11:39;10.10;;;7.83;;
20379;SDS011;10349;48.666;8.948;2022-12-20T06:14:08;11.40;;;7.10;;
20379;SDS011;10349;48.666;8.948;2022-12-20T06:16:37;11.07;;;7.00;;
20379;SDS011;10349;48.666;8.948;2022-12-20T06:19:05;12.43;;;7.13;;
20379;SDS011;10349;48.666;8.948;2022-12-20T06:21:31;11.63;;;7.17;;
20379;SDS011;10349;48.666;8.948;2022-12-20T06:23:57;10.40;;;6.10;;
20379;SDS011;10349;48.666;8.948;2022-12-20T06:26:23;8.47;;;6.37;;
20379;SDS011;10349;48.666;8.948;2022-12-20T06:28:49;23.23;;;7.40;;
20379;SDS011;10349;48.666;8.948;2022-12-20T06:31:34;8.70;;;6.33;;
20379;SDS011;10349;48.666;8.948;2022-12-20T06:34:00;9.43;;;5.80;;
20379;SDS011;10349;48.666;8.948;2022-12-20T06:36:31;9.37;;;5.83;;
20379;SDS011;10349;48.666;8.948;2022-12-20T06:38:57;7.10;;;6.50;;
20379;SDS011;10349;48.666;8.948;2022-12-20T06:41:24;9.10;;;7.63;;
20379;SDS011;10349;48.666;8.948;2022-12-20T06:43:51;9.10;;;5.90;;
20379;SDS011;10349;48.666;8.948;2022-12-20T06:46:17;5.00;;;4.60;;
20379;SDS011;10349;48.666;8.948;2022-12-20T06:48:43;6.47;;;5.97;;
20379;SDS011;10349;48.666;8.948;2022-12-20T06:51:10;7.70;;;5.47;;
20379;SDS011;10349;48.666;8.948;2022-12-20T06:53:36;6.20;;;5.60;;
20379;SDS011;10349;48.666;8.948;2022-12-20T06:56:03;7.60;;;5.03;;
20379;SDS011;10349;48.666;8.948;2022-12-20T06:58:30;5.67;;;4.80;;
20379;SDS011;10349;48.666;8.948;2022-12-20T07:00:56;10.70;;;5.37;;
20379;SDS011;10349;48.666;8.948;2022-12-20T07:03:21;7.27;;;5.03;;
20379;SDS011;10349;48.666;8.948;2022-12-20T07:05:53;5.73;;;5.23;;
20379;SDS011;10349;48.666;8.948;2022-12-20T07:08:20;8.13;;;6.83;;
20379;SDS011;10349;48.666;8.948;2022-12-20T07:10:47;6.87;;;6.23;;
20379;SDS011;10349;48.666;8.948;2022-12-20T07:13:12;7.73;;;5.60;;
20379;SDS011;10349;48.666;8.948;2022-12-20T07:15:38;5.17;;;4.70;;
20379;SDS011;10349;48.666;8.948;2022-12-20T07:18:04;9.53;;;5.27;;
20379;SDS011;10349;48.666;8.948;2022-12-20T07:20:31;6.20;;;4.90;;
20379;SDS011;10349;48.666;8.948;2022-12-20T07:22:57;7.63;;;5.63;;
20379;SDS011;10349;48.666;8.948;2022-12-20T07:25:23;9.77;;;6.10;;
20379;SDS011;10349;48.666;8.948;2022-12-20T07:27:49;6.60;;;4.90;;
20379;SDS011;10349;48.666;8.948;2022-12-20T07:30:16;5.47;;;4.80;;
20379;SDS011;10349;48.666;8.948;2022-12-20T07:32:43;6.90;;;5.37;;
20379;SDS011;10349;48.666;8.948;2022-12-20T07:35:10;13.43;;;5.70;;
20379;SDS011;10349;48.666;8.948;2022-12-20T07:37:36;5.47;;;4.90;;
20379;SDS011;10349;48.666;8.948;2022-12-20T07:40:02;6.97;;;5.13;;
20379;SDS011;10349;48.666;8.948;2022-12-20T07:42:29;6.40;;;5.63;;
20379;SDS011;10349;48.666;8.948;2022-12-20T07:44:54;11.43;;;6.40;;
20379;SDS011;10349;48.666;8.948;2022-12-20T07:47:20;12.03;;;7.00;;
20379;SDS011;10349;48.666;8.948;2022-12-20T07:49:47;11.00;;;6.43;;
20379;SDS011;10349;48.666;8.948;2022-12-20T07:52:13;7.50;;;5.10;;
20379;SDS011;10349;48.666;8.948;2022-12-20T07:54:42;9.70;;;5.80;;
20379;SDS011;10349;48.666;8.948;2022-12-20T07:57:19;7.60;;;5.60;;
20379;SDS011;10349;48.666;8.948;2022-12-20T07:59:50;5.93;;;5.10;;
20379;SDS011;10349;48.666;8.948;2022-12-20T08:02:21;7.50;;;5.80;;
20379;SDS011;10349;48.666;8.948;2022-12-20T08:05:01;5.30;;;4.90;;
20379;SDS011;10349;48.666;8.948;2022-12-20T08:07:28;6.63;;;5.30;;
20379;SDS011;10349;48.666;8.948;2022-12-20T08:09:55;5.67;;;4.97;;
20379;SDS011;10349;48.666;8.948;2022-12-20T08:12:21;5.50;;;5.00;;
20379;SDS011;10349;48.666;8.948;2022-12-20T08:14:47;8.80;;;5.40;;
20379;SDS011;10349;48.666;8.948;2022-12-20T08:17:16;5.37;;;4.90;;
20379;SDS011;10349;48.666;8.948;2022-12-20T08:19:42;7.40;;;5.07;;
20379;SDS011;10349;48.666;8.948;2022-12-20T08:22:08;5.33;;;4.80;;
20379;SDS011;10349;48.666;8.948;2022-12-20T08:24:34;6.63;;;5.10;;
20379;SDS011;10349;48.666;8.948;2022-12-20T08:27:00;5.40;;;4.80;;
20379;SDS011;10349;48.666;8.948;2022-12-20T08:29:25;10.00;;;4.93;;
20379;SDS011;10349;48.666;8.948;2022-12-20T08:31:51;6.70;;;6.07;;
20379;SDS011;10349;48.666;8.948;2022-12-20T08:34:17;6.03;;;5.53;;
20379;SDS011;10349;48.666;8.948;2022-12-20T08:36:43;6.63;;;4.80;;
20379;SDS011;10349;48.666;8.948;2022-12-20T08:39:09;5.93;;;5.30;;
20379;SDS011;10349;48.666;8.948;2022-12-20T08:41:35;6.13;;;5.63;;
20379;SDS011;10349;48.666;8.948;2022-12-20T08:44:02;5.33;;;4.87;;
20379;SDS011;10349;48.666;8.948;2022-12-20T08:46:28;8.93;;;5.03;;
20379;SDS011;10349;48.666;8.948;2022-12-20T08:48:54;8.77;;;5.23;;
20379;SDS011;10349;48.666;8.948;2022-12-20T08:51:20;6.13;;;4.73;;
20379;SDS011;10349;48.666;8.948;2022-12-20T08:53:46;5.43;;;4.83;;
20379;SDS011;10349;48.666;8.948;2022-12-20T08:56:12;9.17;;;6.23;;
20379;SDS011;10349;48.666;8.948;2022-12-20T08:58:42;6.20;;;5.30;;
20379;SDS011;10349;48.666;8.948;2022-12-20T09:01:09;6.40;;;4.60;;
20379;SDS011;10349;48.666;8.948;2022-12-20T09:03:37;6.33;;;5.70;;
20379;SDS011;10349;48.666;8.948;2022-12-20T09:06:05;5.63;;;5.10;;
20379;SDS011;10349;48.666;8.948;2022-12-20T09:08:33;5.37;;;4.87;;
20379;SDS011;10349;48.666;8.948;2022-12-20T09:11:04;6.20;;;5.10;;
20379;SDS011;10349;48.666;8.948;2022-12-20T09:13:33;6.60;;;5.00;;
20379;SDS011;10349;48.666;8.948;2022-12-20T09:16:00;7.90;;;5.07;;
20379;SDS011;10349;48.666;8.948;2022-12-20T09:18:26;6.00;;;5.43;;
20379;SDS011;10349;48.666;8.948;2022-12-20T09:20:51;8.60;;;4.83;;
20379;SDS011;10349;48.666;8.948;2022-12-20T09:23:17;5.13;;;4.73;;
20379;SDS011;10349;48.666;8.948;2022-12-20T09:25:43;5.23;;;4.70;;
20379;SDS011;10349;48.666;8.948;2022-12-20T09:28:09;6.30;;;4.80;;
20379;SDS011;10349;48.666;8.948;2022-12-20T09:30:35;6.07;;;5.57;;
20379;SDS011;10349;48.666;8.948;2022-12-20T09:33:01;4.27;;;3.90;;
20379;SDS011;10349;48.666;8.948;2022-12-20T09:35:27;4.97;;;4.43;;
20379;SDS011;10349;48.666;8.948;2022-12-20T09:37:52;4.03;;;3.73;;
20379;SDS011;10349;48.666;8.948;2022-12-20T09:40:19;4.97;;;4.53;;
20379;SDS011;10349;48.666;8.948;2022-12-20T09:42:48;5.30;;;4.80;;
20379;SDS011;10349;48.666;8.948;2022-12-20T09:45:20;5.30;;;4.83;;
20379;SDS011;10349;48.666;8.948;2022-12-20T09:47:55;4.90;;;4.47;;
20379;SDS011;10349;48.666;8.948;2022-12-20T09:50:26;5.57;;;4.63;;
20379;SDS011;10349;48.666;8.948;2022-12-20T09:53:21;7.20;;;4.60;;
20379;SDS011;10349;48.666;8.948;2022-12-20T09:56:04;5.07;;;4.57;;
20379;SDS011;10349;48.666;8.948;2022-12-20T09:58:36;6.07;;;4.57;;
20379;SDS011;10349;48.666;8.948;2022-12-20T10:01:21;5.13;;;4.63;;
20379;SDS011;10349;48.666;8.948;2022-12-20T10:03:49;5.87;;;4.20;;
20379;SDS011;10349;48.666;8.948;2022-12-20T10:09:04;4.13;;;3.80;;
20379;SDS011;10349;48.666;8.948;2022-12-20T10:17:11;5.60;;;4.40;;
20379;SDS011;10349;48.666;8.948;2022-12-20T10:19:53;3.80;;;3.40;;
20379;SDS011;10349;48.666;8.948;2022-12-20T10:25:20;3.77;;;3.47;;
20379;SDS011;10349;48.666;8.948;2022-12-20T10:27:48;4.03;;;3.73;;
20379;SDS011;10349;48.666;8.948;2022-12-20T10:30:20;7.10;;;4.30;;
20379;SDS011;10349;48.666;8.948;2022-12-20T10:32:50;7.50;;;4.10;;
20379;SDS011;10349;48.666;8.948;2022-12-20T10:37:56;5.47;;;4.40;;
20379;SDS011;10349;48.666;8.948;2022-12-20T10:40:34;7.70;;;4.57;;
20379;SDS011;10349;48.666;8.948;2022-12-20T10:43:02;6.63;;;5.40;;
20379;SDS011;10349;48.666;8.948;2022-12-20T10:45:34;8.47;;;5.20;;
20379;SDS011;10349;48.666;8.948;2022-12-20T10:48:08;3.60;;;3.33;;
20379;SDS011;10349;48.666;8.948;2022-12-20T10:50:56;4.83;;;4.37;;
20379;SDS011;10349;48.666;8.948;2022-12-20T10:53:24;4.90;;;4.40;;
20379;SDS011;10349;48.666;8.948;2022-12-20T10:55:53;4.30;;;4.00;;
20379;SDS011;10349;48.666;8.948;2022-12-20T11:01:13;7.13;;;4.97;;
20379;SDS011;10349;48.666;8.948;2022-12-20T11:03:49;7.03;;;4.20;;
20379;SDS011;10349;48.666;8.948;2022-12-20T11:06:22;4.57;;;4.17;;
20379;SDS011;10349;48.666;8.948;2022-12-20T11:08:53;4.37;;;3.97;;
20379;SDS011;10349;48.666;8.948;2022-12-20T11:14:29;4.80;;;3.90;;
20379;SDS011;10349;48.666;8.948;2022-12-20T11:16:56;6.97;;;4.93;;
20379;SDS011;10349;48.666;8.948;2022-12-20T11:30:02;4.90;;;3.53;;
20379;SDS011;10349;48.666;8.948;2022-12-20T11:32:36;4.70;;;4.10;;
20379;SDS011;10349;48.666;8.948;2022-12-20T11:35:25;5.07;;;4.57;;
20379;SDS011;10349;48.666;8.948;2022-12-20T11:40:43;4.80;;;4.40;;
20379;SDS011;10349;48.666;8.948;2022-12-20T11:51:29;4.27;;;3.93;;
20379;SDS011;10349;48.666;8.948;2022-12-20T11:54:20;4.00;;;3.50;;
20379;SDS011;10349;48.666;8.948;2022-12-20T11:56:52;4.63;;;3.97;;
20379;SDS011;10349;48.666;8.948;2022-12-20T11:59:34;4.17;;;3.77;;
20379;SDS011;10349;48.666;8.948;2022-12-20T12:04:27;5.03;;;3.83;;
20379;SDS011;10349;48.666;8.948;2022-12-20T12:07:41;5.80;;;4.57;;
20379;SDS011;10349;48.666;8.948;2022-12-20T12:12:47;6.07;;;4.03;;
20379;SDS011;10349;48.666;8.948;2022-12-20T12:15:27;4.20;;;3.77;;
20379;SDS011;10349;48.666;8.948;2022-12-20T12:18:08;4.20;;;3.90;;
20379;SDS011;10349;48.666;8.948;2022-12-20T12:26:58;4.40;;;3.67;;
20379;SDS011;10349;48.666;8.948;2022-12-20T12:29:25;5.27;;;4.20;;
20379;SDS011;10349;48.666;8.948;2022-12-20T12:31:57;3.60;;;3.30;;
20379;SDS011;10349;48.666;8.948;2022-12-20T12:45:55;4.67;;;4.20;;
20379;SDS011;10349;48.666;8.948;2022-12-20T12:48:31;5.80;;;4.63;;
20379;SDS011;10349;48.666;8.948;2022-12-20T12:51:03;4.67;;;4.33;;
20379;SDS011;10349;48.666;8.948;2022-12-20T13:01:45;6.67;;;5.07;;
20379;SDS011;10349;48.666;8.948;2022-12-20T13:20:31;5.40;;;3.60;;
20379;SDS011;10349;48.666;8.948;2022-12-20T13:25:36;4.70;;;4.00;;
20379;SDS011;10349;48.666;8.948;2022-12-20T13:30:40;3.83;;;3.40;;
20379;SDS011;10349;48.666;8.948;2022-12-20T13:43:52;5.50;;;4.10;;
20379;SDS011;10349;48.666;8.948;2022-12-20T13:46:21;4.60;;;4.00;;
20379;SDS011;10349;48.666;8.948;2022-12-20T13:48:58;7.13;;;4.00;;
20379;SDS011;10349;48.666;8.948;2022-12-20T13:51:30;4.37;;;3.97;;
20379;SDS011;10349;48.666;8.948;2022-12-20T13:58:52;5.13;;;3.60;;
20379;SDS011;10349;48.666;8.948;2022-12-20T14:01:20;3.50;;;3.03;;
20379;SDS011;10349;48.666;8.948;2022-12-20T14:03:47;5.43;;;5.00;;
20379;SDS011;10349;48.666;8.948;2022-12-20T14:06:14;5.87;;;5.03;;
20379;SDS011;10349;48.666;8.948;2022-12-20T14:08:44;6.07;;;4.10;;
20379;SDS011;10349;48.666;8.948;2022-12-20T14:11:19;5.57;;;4.90;;
20379;SDS011;10349;48.666;8.948;2022-12-20T14:13:53;5.30;;;4.80;;
20379;SDS011;10349;48.666;8.948;2022-12-20T14:16:28;4.40;;;4.00;;
20379;SDS011;10349;48.666;8.948;2022-12-20T14:19:02;4.53;;;4.20;;
20379;SDS011;10349;48.666;8.948;2022-12-20T14:21:32;5.47;;;3.00;;
20379;SDS011;10349;48.666;8.948;2022-12-20T14:24:01;4.47;;;4.07;;
20379;SDS011;10349;48.666;8.948;2022-12-20T14:27:01;4.07;;;3.77;;
20379;SDS011;10349;48.666;8.948;2022-12-20T14:29:23;4.77;;;3.80;;
20379;SDS011;10349;48.666;8.948;2022-12-20T14:31:53;3.93;;;3.53;;
20379;SDS011;10349;48.666;8.948;2022-12-20T14:34:20;4.30;;;3.93;;
20379;SDS011;10349;48.666;8.948;2022-12-20T14:36:54;5.90;;;5.40;;
20379;SDS011;10349;48.666;8.948;2022-12-20T14:42:39;5.10;;;4.13;;
20379;SDS011;10349;48.666;8.948;2022-12-20T14:47:46;5.30;;;4.90;;
20379;SDS011;10349;48.666;8.948;2022-12-20T14:50:21;4.70;;;4.30;;
20379;SDS011;10349;48.666;8.948;2022-12-20T14:52:51;5.03;;;4.60;;
20379;SDS011;10349;48.666;8.948;2022-12-20T14:55:38;9.13;;;4.60;;
20379;SDS011;10349;48.666;8.948;2022-12-20T14:58:25;4.97;;;4.20;;
20379;SDS011;10349;48.666;8.948;2022-12-20T15:03:53;4.47;;;4.17;;
20379;SDS011;10349;48.666;8.948;2022-12-20T15:06:40;7.07;;;5.33;;
20379;SDS011;10349;48.666;8.948;2022-12-20T15:09:08;5.70;;;4.70;;
20379;SDS011;10349;48.666;8.948;2022-12-20T15:11:34;6.03;;;5.27;;
20379;SDS011;10349;48.666;8.948;2022-12-20T15:14:01;6.63;;;5.93;;
20379;SDS011;10349;48.666;8.948;2022-12-20T15:16:38;7.37;;;5.13;;
20379;SDS011;10349;48.666;8.948;2022-12-20T15:19:11;8.33;;;6.40;;
20379;SDS011;10349;48.666;8.948;2022-12-20T15:21:38;9.10;;;6.73;;
20379;SDS011;10349;48.666;8.948;2022-12-20T15:24:11;7.50;;;5.17;;
20379;SDS011;10349;48.666;8.948;2022-12-20T15:26:38;5.90;;;5.40;;
20379;SDS011;10349;48.666;8.948;2022-12-20T15:29:04;5.87;;;5.20;;
20379;SDS011;10349;48.666;8.948;2022-12-20T15:31:31;5.80;;;5.20;;
20379;SDS011;10349;48.666;8.948;2022-12-20T15:33:58;5.83;;;5.13;;
20379;SDS011;10349;48.666;8.948;2022-12-20T15:36:27;9.07;;;7.50;;
20379;SDS011;10349;48.666;8.948;2022-12-20T15:38:56;14.00;;;9.10;;
20379;SDS011;10349;48.666;8.948;2022-12-20T15:41:23;14.53;;;9.60;;
20379;SDS011;10349;48.666;8.948;2022-12-20T15:43:51;12.07;;;8.27;;
20379;SDS011;10349;48.666;8.948;2022-12-20T15:46:20;11.80;;;8.37;;
20379;SDS011;10349;48.666;8.948;2022-12-20T15:48:45;11.47;;;6.97;;
20379;SDS011;10349;48.666;8.948;2022-12-20T15:51:14;8.00;;;6.53;;
20379;SDS011;10349;48.666;8.948;2022-12-20T15:53:42;9.73;;;6.90;;
20379;SDS011;10349;48.666;8.948;2022-12-20T15:56:11;12.73;;;9.40;;
20379;SDS011;10349;48.666;8.948;2022-12-20T15:58:44;7.93;;;6.30;;
20379;SDS011;10349;48.666;8.948;2022-12-20T16:01:12;12.63;;;8.60;;
20379;SDS011;10349;48.666;8.948;2022-12-20T16:03:42;10.50;;;9.27;;
20379;SDS011;10349;48.666;8.948;2022-12-20T16:06:09;10.93;;;9.40;;
20379;SDS011;10349;48.666;8.948;2022-12-20T16:08:37;9.03;;;8.13;;
20379;SDS011;10349;48.666;8.948;2022-12-20T16:11:04;13.43;;;9.50;;
20379;SDS011;10349;48.666;8.948;2022-12-20T16:13:51;8.90;;;8.00;;
20379;SDS011;10349;48.666;8.948;2022-12-20T16:16:19;8.50;;;7.80;;
20379;SDS011;10349;48.666;8.948;2022-12-20T16:18:46;13.93;;;7.63;;
20379;SDS011;10349;48.666;8.948;2022-12-20T16:21:16;15.57;;;9.07;;
20379;SDS011;10349;48.666;8.948;2022-12-20T16:23:44;9.93;;;8.40;;
20379;SDS011;10349;48.666;8.948;2022-12-20T16:26:11;9.87;;;7.40;;
20379;SDS011;10349;48.666;8.948;2022-12-20T16:28:41;10.13;;;7.33;;
20379;SDS011;10349;48.666;8.948;2022-12-20T16:33:58;14.20;;;7.97;;
20379;SDS011;10349;48.666;8.948;2022-12-20T16:36:25;9.23;;;7.07;;
20379;SDS011;10349;48.666;8.948;2022-12-20T16:38:51;9.50;;;7.33;;
20379;SDS011;10349;48.666;8.948;2022-12-20T16:41:19;14.67;;;8.93;;
20379;SDS011;10349;48.666;8.948;2022-12-20T16:43:48;17.47;;;9.93;;
20379;SDS011;10349;48.666;8.948;2022-12-20T16:46:17;10.40;;;7.53;;
20379;SDS011;10349;48.666;8.948;2022-12-20T16:48:45;7.97;;;7.23;;
20379;SDS011;10349;48.666;8.948;2022-12-20T16:51:28;9.10;;;7.57;;
20379;SDS011;10349;48.666;8.948;2022-12-20T16:54:24;8.77;;;7.77;;
20379;SDS011;10349;48.666;8.948;2022-12-20T16:56:50;12.07;;;9.10;;
20379;SDS011;10349;48.666;8.948;2022-12-20T16:59:19;13.23;;;8.60;;
20379;SDS011;10349;48.666;8.948;2022-12-20T17:01:46;15.00;;;10.60;;
20379;SDS011;10349;48.666;8.948;2022-12-20T17:04:13;14.33;;;10.57;;
20379;SDS011;10349;48.666;8.948;2022-12-20T17:06:41;13.83;;;10.73;;
20379;SDS011;10349;48.666;8.948;2022-12-20T17:09:08;28.50;;;19.00;;
20379;SDS011;10349;48.666;8.948;2022-12-20T17:11:35;20.87;;;12.90;;
20379;SDS011;10349;48.666;8.948;2022-12-20T17:14:01;16.80;;;10.50;;
20379;SDS011;10349;48.666;8.948;2022-12-20T17:16:27;12.37;;;9.17;;
20379;SDS011;10349;48.666;8.948;2022-12-20T17:18:53;12.13;;;9.00;;